Delray Beach, FL

12:16 PM EDT on October 21, 2014 (GMT -0400)
Lake Ida | Change Station
CLOSE
Current Station
Personal Weather Station
Location: Delray Beach, FL
Elevation: 10 ft
Nearby Weather Stations

Elev 10 ft 26.47 °N, 80.08 °W | Updated 5 seconds ago

Overcast
Overcast
82.6 °F
Feels Like 89 °F
N
5.0
Wind Variable Wind from ESE
Gusts 7.0 mph

Today
High -- | Low -- °F
--% Chance of Precip.
Yesterday
High -- | Low -- °F
Precip. -- in
7:22 AM 6:46 PM
Waning Crescent, 5% visible
Pressure 29.98 in
Visibility 7.0 miles
Clouds Few 3200 ft
Mostly Cloudy 5500 ft
Heat Index 89 °F
Dew Point 74 °F
Humidity 76%
Rainfall 0.00 in
Snow Depth Not available.
UV 5 out of 12
Pollen 3.20 out of 12
Ozone Good
PM2.5 Good
Flu Activity Local Activity
METAR KPMP 211553Z 19006KT 7SM FEW032 BKN055 27/23 A2997 RMK AO2 LTG DSNT N RAB13E43 SLP150 P0003 T02720228

More Conditions Fewer Conditions

Pressure 29.98 in
Visibility 7.0 miles
Clouds Few 3200 ft
Mostly Cloudy 5500 ft
Heat Index 89 °F
Dew Point 74 °F
Humidity 76%
Rainfall 0.00 in
Snow Depth Not available.
UV 5 out of 12
Pollen 3.20 out of 12
Ozone Good
PM2.5 Good
Flu Activity Local Activity
METAR KPMP 211553Z 19006KT 7SM FEW032 BKN055 27/23 A2997 RMK AO2 LTG DSNT N RAB13E43 SLP150 P0003 T02720228

More Conditions Fewer Conditions

Nowcast | as of 11:51 am EDT on October 21, 2014

Through early this afternoon...showers and thunderstorms will continue to develop over the interior areas and move north northeast into the East Coast Metro areas of South Florida. Wind gusts up to 40 mph...lightning strikes...and heavy rainfall will accompany any storms that move through the area. If you see lightning or hear thunder move inside until the storms have passed by.

×

10-Day Weather Forecast

Almanac

Astronomy

Oct. 21, 2014 Rise Set
Actual Time 7:22 AM EDT 6:46 PM EDT
Civil Twilight 6:59 AM EDT 7:10 PM EDT
Nautical Twilight 6:32 AM EDT 7:37 PM EDT
Astronomical Twilight 6:05 AM EDT 8:04 PM EDT
Moon 5:18 AM EDT 5:29 PM EDT
Length of Visible Light 12h 10m
Length of Day
11h 23m
Tomorrow will be 1m 28s shorter.
Waning Crescent, 5% of the Moon is Illuminated
Today
Waning Crescent
Oct 23
New
Oct 30
First Quarter
Nov 6
Full
Nov 14
Last Quarter

Today's Extremes

State Highs State Lows

Community

WunderPhotos

Upload Photos

1,763,708 photos uploaded!

Nearby

Air Quality

  Air Quality AQ Index Pollutant
Yesterday Good
PM2.5
Yesterday Good
OZONE
Current Good
PM2.5
Current Good
OZONE
Tuesday Good
OZONE
Tuesday Good
PM2.5
Wednesday Good
OZONE
Wednesday Good
PM2.5

Snow Depth

Station Depth Elevation
No new snow has been reported.

Earthquake Activity

City Distance Mag. Time & Date
No recent earthquake activity has been reported nearby.
Minimum magnitude displayed is 2.5.

Coastal Water Temperatures

Place Temperature
Lake Worth, FL 82.9 °F
Virginia Key, FL 81.0 °F

Nearby Weather Stations